sensor_id;sensor_type;location;lat;lon;timestamp;P1;durP1;ratioP1;P2;durP2;ratioP2
65822;SDS011;52585;47.566;19.056;2022-12-15T00:11:13;19.00;;;12.70;;
65822;SDS011;52585;47.566;19.056;2022-12-15T00:13:57;20.50;;;12.20;;
65822;SDS011;52585;47.566;19.056;2022-12-15T00:16:41;19.00;;;12.70;;
65822;SDS011;52585;47.566;19.056;2022-12-15T00:22:10;12.60;;;9.50;;
65822;SDS011;52585;47.566;19.056;2022-12-15T00:24:54;15.30;;;11.00;;
65822;SDS011;52585;47.566;19.056;2022-12-15T00:27:38;15.90;;;11.00;;
65822;SDS011;52585;47.566;19.056;2022-12-15T00:33:10;13.60;;;9.90;;
65822;SDS011;52585;47.566;19.056;2022-12-15T00:35:54;16.40;;;10.90;;
65822;SDS011;52585;47.566;19.056;2022-12-15T00:38:41;13.40;;;10.70;;
65822;SDS011;52585;47.566;19.056;2022-12-15T00:41:10;16.60;;;11.30;;
65822;SDS011;52585;47.566;19.056;2022-12-15T00:43:37;14.90;;;11.10;;
65822;SDS011;52585;47.566;19.056;2022-12-15T00:46:03;16.00;;;11.40;;
65822;SDS011;52585;47.566;19.056;2022-12-15T00:48:47;15.80;;;10.90;;
65822;SDS011;52585;47.566;19.056;2022-12-15T00:51:14;15.50;;;11.80;;
65822;SDS011;52585;47.566;19.056;2022-12-15T00:53:41;15.10;;;11.10;;
65822;SDS011;52585;47.566;19.056;2022-12-15T00:56:25;15.50;;;10.60;;
65822;SDS011;52585;47.566;19.056;2022-12-15T00:59:11;16.90;;;11.80;;
65822;SDS011;52585;47.566;19.056;2022-12-15T01:01:55;15.00;;;11.20;;
65822;SDS011;52585;47.566;19.056;2022-12-15T01:04:40;13.30;;;10.60;;
65822;SDS011;52585;47.566;19.056;2022-12-15T01:07:24;14.20;;;11.10;;
65822;SDS011;52585;47.566;19.056;2022-12-15T01:10:09;14.60;;;11.50;;
65822;SDS011;52585;47.566;19.056;2022-12-15T01:12:54;14.60;;;10.40;;
65822;SDS011;52585;47.566;19.056;2022-12-15T01:15:38;14.80;;;11.00;;
65822;SDS011;52585;47.566;19.056;2022-12-15T01:18:23;16.40;;;11.00;;
65822;SDS011;52585;47.566;19.056;2022-12-15T01:21:09;14.70;;;11.30;;
65822;SDS011;52585;47.566;19.056;2022-12-15T01:23:37;15.50;;;11.50;;
65822;SDS011;52585;47.566;19.056;2022-12-15T01:26:05;20.60;;;12.80;;
65822;SDS011;52585;47.566;19.056;2022-12-15T01:28:31;19.20;;;13.30;;
65822;SDS011;52585;47.566;19.056;2022-12-15T01:30:56;21.10;;;14.20;;
65822;SDS011;52585;47.566;19.056;2022-12-15T01:33:23;19.80;;;12.70;;
65822;SDS011;52585;47.566;19.056;2022-12-15T01:35:58;17.10;;;11.50;;
65822;SDS011;52585;47.566;19.056;2022-12-15T01:38:26;17.90;;;11.50;;
65822;SDS011;52585;47.566;19.056;2022-12-15T01:40:54;16.50;;;11.50;;
65822;SDS011;52585;47.566;19.056;2022-12-15T01:43:28;14.40;;;10.80;;
65822;SDS011;52585;47.566;19.056;2022-12-15T01:45:57;16.50;;;11.50;;
65822;SDS011;52585;47.566;19.056;2022-12-15T01:48:48;20.70;;;12.30;;
65822;SDS011;52585;47.566;19.056;2022-12-15T01:51:34;17.10;;;10.90;;
65822;SDS011;52585;47.566;19.056;2022-12-15T01:54:18;15.80;;;10.40;;
65822;SDS011;52585;47.566;19.056;2022-12-15T01:56:54;18.40;;;12.00;;
65822;SDS011;52585;47.566;19.056;2022-12-15T01:59:34;17.90;;;10.80;;
65822;SDS011;52585;47.566;19.056;2022-12-15T02:02:04;15.80;;;11.50;;
65822;SDS011;52585;47.566;19.056;2022-12-15T02:04:30;17.00;;;11.80;;
65822;SDS011;52585;47.566;19.056;2022-12-15T02:06:56;17.60;;;11.10;;
65822;SDS011;52585;47.566;19.056;2022-12-15T02:09:23;18.50;;;12.20;;
65822;SDS011;52585;47.566;19.056;2022-12-15T02:12:26;19.10;;;12.30;;
65822;SDS011;52585;47.566;19.056;2022-12-15T02:15:03;18.70;;;11.40;;
65822;SDS011;52585;47.566;19.056;2022-12-15T02:32:20;16.40;;;11.20;;
65822;SDS011;52585;47.566;19.056;2022-12-15T02:35:08;22.40;;;11.70;;
65822;SDS011;52585;47.566;19.056;2022-12-15T02:37:41;15.60;;;10.60;;
65822;SDS011;52585;47.566;19.056;2022-12-15T02:40:09;15.60;;;11.50;;
65822;SDS011;52585;47.566;19.056;2022-12-15T02:42:38;17.60;;;12.30;;
65822;SDS011;52585;47.566;19.056;2022-12-15T02:45:27;17.90;;;11.60;;
65822;SDS011;52585;47.566;19.056;2022-12-15T02:54:41;15.70;;;10.40;;
65822;SDS011;52585;47.566;19.056;2022-12-15T03:00:18;17.90;;;10.70;;
65822;SDS011;52585;47.566;19.056;2022-12-15T03:02:50;15.90;;;11.30;;
65822;SDS011;52585;47.566;19.056;2022-12-15T03:05:20;13.80;;;10.70;;
65822;SDS011;52585;47.566;19.056;2022-12-15T03:07:49;20.80;;;13.00;;
65822;SDS011;52585;47.566;19.056;2022-12-15T03:10:17;24.20;;;12.60;;
65822;SDS011;52585;47.566;19.056;2022-12-15T03:12:46;24.30;;;14.80;;
65822;SDS011;52585;47.566;19.056;2022-12-15T03:15:11;21.20;;;13.70;;
65822;SDS011;52585;47.566;19.056;2022-12-15T03:17:37;20.60;;;13.40;;
65822;SDS011;52585;47.566;19.056;2022-12-15T03:20:04;18.20;;;11.80;;
65822;SDS011;52585;47.566;19.056;2022-12-15T03:22:30;17.40;;;12.00;;
65822;SDS011;52585;47.566;19.056;2022-12-15T03:24:56;16.90;;;11.90;;
65822;SDS011;52585;47.566;19.056;2022-12-15T03:27:22;20.10;;;13.10;;
65822;SDS011;52585;47.566;19.056;2022-12-15T03:29:47;19.90;;;12.30;;
65822;SDS011;52585;47.566;19.056;2022-12-15T03:32:13;16.70;;;12.10;;
65822;SDS011;52585;47.566;19.056;2022-12-15T03:34:38;17.60;;;12.40;;
65822;SDS011;52585;47.566;19.056;2022-12-15T03:37:04;24.30;;;13.20;;
65822;SDS011;52585;47.566;19.056;2022-12-15T03:39:30;18.40;;;11.80;;
65822;SDS011;52585;47.566;19.056;2022-12-15T03:41:55;17.80;;;12.50;;
65822;SDS011;52585;47.566;19.056;2022-12-15T03:44:21;14.90;;;11.30;;
65822;SDS011;52585;47.566;19.056;2022-12-15T03:46:46;18.40;;;11.40;;
65822;SDS011;52585;47.566;19.056;2022-12-15T03:49:12;20.90;;;13.80;;
65822;SDS011;52585;47.566;19.056;2022-12-15T03:51:37;24.50;;;15.30;;
65822;SDS011;52585;47.566;19.056;2022-12-15T03:54:03;24.40;;;15.30;;
65822;SDS011;52585;47.566;19.056;2022-12-15T03:56:28;22.10;;;14.30;;
65822;SDS011;52585;47.566;19.056;2022-12-15T03:58:54;17.20;;;12.00;;
65822;SDS011;52585;47.566;19.056;2022-12-15T04:03:45;20.30;;;12.80;;
65822;SDS011;52585;47.566;19.056;2022-12-15T04:06:11;21.60;;;12.60;;
65822;SDS011;52585;47.566;19.056;2022-12-15T04:08:37;17.40;;;11.60;;
65822;SDS011;52585;47.566;19.056;2022-12-15T04:11:02;18.90;;;13.20;;
65822;SDS011;52585;47.566;19.056;2022-12-15T04:13:28;18.40;;;11.30;;
65822;SDS011;52585;47.566;19.056;2022-12-15T04:15:54;20.40;;;13.20;;
65822;SDS011;52585;47.566;19.056;2022-12-15T04:18:19;18.10;;;12.00;;
65822;SDS011;52585;47.566;19.056;2022-12-15T04:20:45;16.30;;;12.00;;
65822;SDS011;52585;47.566;19.056;2022-12-15T04:23:10;17.30;;;12.30;;
65822;SDS011;52585;47.566;19.056;2022-12-15T04:25:36;17.70;;;12.70;;
65822;SDS011;52585;47.566;19.056;2022-12-15T04:28:21;18.30;;;12.60;;
65822;SDS011;52585;47.566;19.056;2022-12-15T04:31:11;23.30;;;14.30;;
65822;SDS011;52585;47.566;19.056;2022-12-15T04:34:04;24.70;;;14.40;;
65822;SDS011;52585;47.566;19.056;2022-12-15T04:36:52;25.90;;;15.60;;
65822;SDS011;52585;47.566;19.056;2022-12-15T04:39:39;20.60;;;14.00;;
65822;SDS011;52585;47.566;19.056;2022-12-15T04:42:27;21.30;;;11.80;;
65822;SDS011;52585;47.566;19.056;2022-12-15T04:45:16;17.80;;;12.00;;
65822;SDS011;52585;47.566;19.056;2022-12-15T04:48:03;18.20;;;12.80;;
65822;SDS011;52585;47.566;19.056;2022-12-15T04:50:48;21.50;;;12.60;;
65822;SDS011;52585;47.566;19.056;2022-12-15T04:53:32;20.70;;;13.00;;
65822;SDS011;52585;47.566;19.056;2022-12-15T04:59:00;19.60;;;10.60;;
65822;SDS011;52585;47.566;19.056;2022-12-15T05:01:45;19.80;;;12.10;;
65822;SDS011;52585;47.566;19.056;2022-12-15T05:07:13;17.30;;;11.20;;
65822;SDS011;52585;47.566;19.056;2022-12-15T05:09:57;17.20;;;12.40;;
65822;SDS011;52585;47.566;19.056;2022-12-15T05:15:27;16.40;;;10.30;;
65822;SDS011;52585;47.566;19.056;2022-12-15T05:18:12;23.60;;;14.40;;
65822;SDS011;52585;47.566;19.056;2022-12-15T05:20:57;25.90;;;16.80;;
65822;SDS011;52585;47.566;19.056;2022-12-15T05:23:41;24.20;;;15.90;;
65822;SDS011;52585;47.566;19.056;2022-12-15T05:26:26;24.10;;;14.70;;
65822;SDS011;52585;47.566;19.056;2022-12-15T05:29:11;17.90;;;13.60;;
65822;SDS011;52585;47.566;19.056;2022-12-15T05:31:55;21.40;;;13.50;;
65822;SDS011;52585;47.566;19.056;2022-12-15T05:34:22;22.80;;;14.40;;
65822;SDS011;52585;47.566;19.056;2022-12-15T05:36:54;23.90;;;14.10;;
65822;SDS011;52585;47.566;19.056;2022-12-15T05:39:21;24.00;;;15.20;;
65822;SDS011;52585;47.566;19.056;2022-12-15T05:41:49;22.30;;;13.60;;
65822;SDS011;52585;47.566;19.056;2022-12-15T05:44:15;20.50;;;13.90;;
65822;SDS011;52585;47.566;19.056;2022-12-15T05:46:41;22.60;;;15.30;;
65822;SDS011;52585;47.566;19.056;2022-12-15T05:49:10;19.30;;;13.70;;
65822;SDS011;52585;47.566;19.056;2022-12-15T05:51:40;26.80;;;15.20;;
65822;SDS011;52585;47.566;19.056;2022-12-15T05:54:08;27.40;;;17.20;;
65822;SDS011;52585;47.566;19.056;2022-12-15T05:56:35;28.40;;;17.40;;
65822;SDS011;52585;47.566;19.056;2022-12-15T05:59:01;29.90;;;18.70;;
65822;SDS011;52585;47.566;19.056;2022-12-15T06:01:28;28.80;;;17.70;;
65822;SDS011;52585;47.566;19.056;2022-12-15T06:03:56;26.50;;;15.50;;
65822;SDS011;52585;47.566;19.056;2022-12-15T06:06:23;23.00;;;14.60;;
65822;SDS011;52585;47.566;19.056;2022-12-15T06:08:48;23.00;;;15.10;;
65822;SDS011;52585;47.566;19.056;2022-12-15T06:11:16;27.00;;;15.50;;
65822;SDS011;52585;47.566;19.056;2022-12-15T06:13:43;25.50;;;15.10;;
65822;SDS011;52585;47.566;19.056;2022-12-15T06:16:16;24.70;;;15.10;;
65822;SDS011;52585;47.566;19.056;2022-12-15T06:18:48;21.10;;;13.80;;
65822;SDS011;52585;47.566;19.056;2022-12-15T06:21:22;24.20;;;15.00;;
65822;SDS011;52585;47.566;19.056;2022-12-15T06:24:00;21.60;;;14.50;;
65822;SDS011;52585;47.566;19.056;2022-12-15T06:26:31;23.20;;;15.20;;
65822;SDS011;52585;47.566;19.056;2022-12-15T06:29:02;25.90;;;17.30;;
65822;SDS011;52585;47.566;19.056;2022-12-15T06:31:32;31.70;;;18.40;;
65822;SDS011;52585;47.566;19.056;2022-12-15T06:33:58;31.30;;;19.20;;
65822;SDS011;52585;47.566;19.056;2022-12-15T06:36:24;26.70;;;16.80;;
65822;SDS011;52585;47.566;19.056;2022-12-15T06:38:51;26.10;;;15.20;;
65822;SDS011;52585;47.566;19.056;2022-12-15T06:41:18;25.80;;;16.00;;
65822;SDS011;52585;47.566;19.056;2022-12-15T06:43:53;27.50;;;15.20;;
65822;SDS011;52585;47.566;19.056;2022-12-15T06:46:22;27.50;;;17.30;;
65822;SDS011;52585;47.566;19.056;2022-12-15T06:48:49;28.70;;;13.80;;
65822;SDS011;52585;47.566;19.056;2022-12-15T06:51:16;23.00;;;16.00;;
65822;SDS011;52585;47.566;19.056;2022-12-15T06:53:43;31.10;;;16.60;;
65822;SDS011;52585;47.566;19.056;2022-12-15T06:56:34;26.00;;;16.30;;
65822;SDS011;52585;47.566;19.056;2022-12-15T06:59:01;24.90;;;15.90;;
65822;SDS011;52585;47.566;19.056;2022-12-15T07:01:29;29.90;;;17.30;;
65822;SDS011;52585;47.566;19.056;2022-12-15T07:03:55;33.60;;;18.60;;
65822;SDS011;52585;47.566;19.056;2022-12-15T07:06:24;35.50;;;19.60;;
65822;SDS011;52585;47.566;19.056;2022-12-15T07:08:51;29.70;;;16.50;;
65822;SDS011;52585;47.566;19.056;2022-12-15T07:11:19;28.90;;;16.60;;
65822;SDS011;52585;47.566;19.056;2022-12-15T07:13:52;26.10;;;14.80;;
65822;SDS011;52585;47.566;19.056;2022-12-15T07:16:20;25.90;;;15.60;;
65822;SDS011;52585;47.566;19.056;2022-12-15T07:18:47;24.00;;;15.30;;
65822;SDS011;52585;47.566;19.056;2022-12-15T07:21:14;25.40;;;14.90;;
65822;SDS011;52585;47.566;19.056;2022-12-15T07:23:39;26.40;;;14.80;;
65822;SDS011;52585;47.566;19.056;2022-12-15T07:26:07;28.10;;;16.00;;
65822;SDS011;52585;47.566;19.056;2022-12-15T07:28:35;24.80;;;15.00;;
65822;SDS011;52585;47.566;19.056;2022-12-15T07:31:03;27.60;;;15.90;;
65822;SDS011;52585;47.566;19.056;2022-12-15T07:33:32;28.00;;;16.60;;
65822;SDS011;52585;47.566;19.056;2022-12-15T07:35:58;33.60;;;17.90;;
65822;SDS011;52585;47.566;19.056;2022-12-15T07:38:25;34.90;;;18.70;;
65822;SDS011;52585;47.566;19.056;2022-12-15T07:40:52;29.50;;;16.90;;
65822;SDS011;52585;47.566;19.056;2022-12-15T07:43:18;29.10;;;15.70;;
65822;SDS011;52585;47.566;19.056;2022-12-15T07:45:43;29.40;;;15.80;;
65822;SDS011;52585;47.566;19.056;2022-12-15T07:48:09;30.10;;;16.30;;
65822;SDS011;52585;47.566;19.056;2022-12-15T07:50:37;26.50;;;15.80;;
65822;SDS011;52585;47.566;19.056;2022-12-15T07:53:04;30.30;;;16.70;;
65822;SDS011;52585;47.566;19.056;2022-12-15T07:55:29;29.20;;;16.90;;
65822;SDS011;52585;47.566;19.056;2022-12-15T07:57:55;27.70;;;15.90;;
65822;SDS011;52585;47.566;19.056;2022-12-15T08:00:20;30.20;;;17.20;;
65822;SDS011;52585;47.566;19.056;2022-12-15T08:02:46;32.30;;;17.80;;
65822;SDS011;52585;47.566;19.056;2022-12-15T08:05:11;39.40;;;20.10;;
65822;SDS011;52585;47.566;19.056;2022-12-15T08:07:37;42.70;;;21.40;;
65822;SDS011;52585;47.566;19.056;2022-12-15T08:10:03;35.80;;;19.70;;
65822;SDS011;52585;47.566;19.056;2022-12-15T08:12:28;32.60;;;17.50;;
65822;SDS011;52585;47.566;19.056;2022-12-15T08:14:55;30.10;;;17.40;;
65822;SDS011;52585;47.566;19.056;2022-12-15T08:17:21;29.60;;;17.00;;
65822;SDS011;52585;47.566;19.056;2022-12-15T08:19:47;30.10;;;17.70;;
65822;SDS011;52585;47.566;19.056;2022-12-15T08:22:12;30.60;;;17.10;;
65822;SDS011;52585;47.566;19.056;2022-12-15T08:24:40;31.40;;;17.10;;
65822;SDS011;52585;47.566;19.056;2022-12-15T08:27:06;30.80;;;16.50;;
65822;SDS011;52585;47.566;19.056;2022-12-15T08:29:32;27.10;;;17.40;;
65822;SDS011;52585;47.566;19.056;2022-12-15T08:31:58;34.30;;;17.70;;
65822;SDS011;52585;47.566;19.056;2022-12-15T08:34:25;31.50;;;19.40;;
65822;SDS011;52585;47.566;19.056;2022-12-15T08:36:50;42.10;;;21.20;;
65822;SDS011;52585;47.566;19.056;2022-12-15T08:39:16;45.20;;;22.50;;
65822;SDS011;52585;47.566;19.056;2022-12-15T08:41:42;37.20;;;20.10;;
65822;SDS011;52585;47.566;19.056;2022-12-15T08:44:08;36.10;;;19.80;;
65822;SDS011;52585;47.566;19.056;2022-12-15T08:46:34;30.00;;;17.70;;
65822;SDS011;52585;47.566;19.056;2022-12-15T08:49:01;31.90;;;18.20;;
65822;SDS011;52585;47.566;19.056;2022-12-15T08:51:29;32.10;;;17.90;;
65822;SDS011;52585;47.566;19.056;2022-12-15T08:53:57;34.20;;;19.20;;
65822;SDS011;52585;47.566;19.056;2022-12-15T08:56:24;33.70;;;18.00;;
65822;SDS011;52585;47.566;19.056;2022-12-15T08:58:57;33.10;;;18.40;;
65822;SDS011;52585;47.566;19.056;2022-12-15T09:01:25;35.00;;;19.80;;
65822;SDS011;52585;47.566;19.056;2022-12-15T09:03:53;36.60;;;18.90;;
65822;SDS011;52585;47.566;19.056;2022-12-15T09:06:22;38.60;;;20.00;;
65822;SDS011;52585;47.566;19.056;2022-12-15T09:08:57;41.00;;;20.30;;
65822;SDS011;52585;47.566;19.056;2022-12-15T09:11:25;40.10;;;21.90;;
65822;SDS011;52585;47.566;19.056;2022-12-15T09:13:51;37.00;;;20.20;;
65822;SDS011;52585;47.566;19.056;2022-12-15T09:16:18;39.00;;;20.20;;
65822;SDS011;52585;47.566;19.056;2022-12-15T09:18:50;32.20;;;19.00;;
65822;SDS011;52585;47.566;19.056;2022-12-15T09:21:22;33.90;;;19.00;;
65822;SDS011;52585;47.566;19.056;2022-12-15T09:23:53;36.60;;;18.80;;
65822;SDS011;52585;47.566;19.056;2022-12-15T09:26:22;34.20;;;18.90;;
65822;SDS011;52585;47.566;19.056;2022-12-15T09:28:48;34.40;;;19.70;;
65822;SDS011;52585;47.566;19.056;2022-12-15T09:33:47;27.00;;;16.60;;
65822;SDS011;52585;47.566;19.056;2022-12-15T09:36:14;36.30;;;20.10;;
65822;SDS011;52585;47.566;19.056;2022-12-15T09:38:43;36.90;;;21.70;;
65822;SDS011;52585;47.566;19.056;2022-12-15T09:46:39;36.00;;;21.10;;
65822;SDS011;52585;47.566;19.056;2022-12-15T09:52:16;35.10;;;20.30;;
65822;SDS011;52585;47.566;19.056;2022-12-15T09:55:18;37.90;;;21.40;;
65822;SDS011;52585;47.566;19.056;2022-12-15T09:57:55;35.10;;;19.90;;
65822;SDS011;52585;47.566;19.056;2022-12-15T10:00:29;33.50;;;20.00;;
65822;SDS011;52585;47.566;19.056;2022-12-15T10:03:33;33.90;;;19.10;;
65822;SDS011;52585;47.566;19.056;2022-12-15T10:06:10;33.60;;;19.40;;
65822;SDS011;52585;47.566;19.056;2022-12-15T10:08:54;36.10;;;20.70;;
65822;SDS011;52585;47.566;19.056;2022-12-15T10:14:43;47.10;;;22.70;;
65822;SDS011;52585;47.566;19.056;2022-12-15T10:20:21;37.30;;;19.90;;
65822;SDS011;52585;47.566;19.056;2022-12-15T10:22:50;37.30;;;20.40;;
65822;SDS011;52585;47.566;19.056;2022-12-15T10:31:15;36.40;;;19.20;;
65822;SDS011;52585;47.566;19.056;2022-12-15T10:33:55;36.10;;;19.40;;
65822;SDS011;52585;47.566;19.056;2022-12-15T10:36:25;37.20;;;21.00;;
65822;SDS011;52585;47.566;19.056;2022-12-15T10:38:51;39.90;;;21.50;;
65822;SDS011;52585;47.566;19.056;2022-12-15T10:41:19;43.40;;;21.20;;
65822;SDS011;52585;47.566;19.056;2022-12-15T10:43:48;44.00;;;23.40;;
65822;SDS011;52585;47.566;19.056;2022-12-15T10:48:58;40.80;;;22.10;;
65822;SDS011;52585;47.566;19.056;2022-12-15T10:51:56;40.00;;;21.10;;
65822;SDS011;52585;47.566;19.056;2022-12-15T10:54:31;33.40;;;19.60;;
65822;SDS011;52585;47.566;19.056;2022-12-15T10:57:18;37.60;;;20.30;;
65822;SDS011;52585;47.566;19.056;2022-12-15T10:59:53;34.10;;;18.90;;
65822;SDS011;52585;47.566;19.056;2022-12-15T11:04:56;36.70;;;20.90;;
65822;SDS011;52585;47.566;19.056;2022-12-15T11:10:00;37.00;;;19.20;;
65822;SDS011;52585;47.566;19.056;2022-12-15T11:12:29;33.20;;;19.70;;
65822;SDS011;52585;47.566;19.056;2022-12-15T11:26:55;34.60;;;18.30;;
65822;SDS011;52585;47.566;19.056;2022-12-15T11:29:41;33.00;;;17.80;;
65822;SDS011;52585;47.566;19.056;2022-12-15T11:32:33;33.60;;;19.10;;
65822;SDS011;52585;47.566;19.056;2022-12-15T11:35:01;35.00;;;17.80;;
65822;SDS011;52585;47.566;19.056;2022-12-15T11:37:48;37.10;;;21.00;;
65822;SDS011;52585;47.566;19.056;2022-12-15T11:51:52;40.80;;;21.60;;
65822;SDS011;52585;47.566;19.056;2022-12-15T12:00:30;32.70;;;19.30;;
65822;SDS011;52585;47.566;19.056;2022-12-15T12:03:18;32.10;;;18.40;;
65822;SDS011;52585;47.566;19.056;2022-12-15T12:08:59;33.20;;;19.20;;
65822;SDS011;52585;47.566;19.056;2022-12-15T12:11:47;33.10;;;19.20;;
65822;SDS011;52585;47.566;19.056;2022-12-15T12:19:57;31.10;;;18.30;;
65822;SDS011;52585;47.566;19.056;2022-12-15T12:22:29;37.00;;;19.80;;
65822;SDS011;52585;47.566;19.056;2022-12-15T12:25:07;36.40;;;21.70;;
65822;SDS011;52585;47.566;19.056;2022-12-15T12:28:00;34.50;;;21.10;;
65822;SDS011;52585;47.566;19.056;2022-12-15T12:30:38;33.40;;;18.80;;
65822;SDS011;52585;47.566;19.056;2022-12-15T12:35:59;30.30;;;17.90;;
65822;SDS011;52585;47.566;19.056;2022-12-15T12:38:41;35.40;;;18.10;;
65822;SDS011;52585;47.566;19.056;2022-12-15T12:43:55;31.60;;;18.50;;
65822;SDS011;52585;47.566;19.056;2022-12-15T12:46:51;30.70;;;18.00;;
65822;SDS011;52585;47.566;19.056;2022-12-15T12:49:27;29.40;;;18.20;;
65822;SDS011;52585;47.566;19.056;2022-12-15T12:51:59;34.80;;;20.20;;
65822;SDS011;52585;47.566;19.056;2022-12-15T12:56:57;39.40;;;22.80;;
65822;SDS011;52585;47.566;19.056;2022-12-15T13:01:56;35.70;;;19.60;;
65822;SDS011;52585;47.566;19.056;2022-12-15T13:04:42;35.50;;;19.50;;
65822;SDS011;52585;47.566;19.056;2022-12-15T13:07:31;33.80;;;19.70;;
65822;SDS011;52585;47.566;19.056;2022-12-15T13:12:55;34.40;;;19.40;;
65822;SDS011;52585;47.566;19.056;2022-12-15T13:20:33;43.40;;;23.00;;
65822;SDS011;52585;47.566;19.056;2022-12-15T13:47:14;44.70;;;24.50;;
65822;SDS011;52585;47.566;19.056;2022-12-15T13:49:54;45.90;;;24.70;;
65822;SDS011;52585;47.566;19.056;2022-12-15T13:52:44;44.00;;;23.50;;
65822;SDS011;52585;47.566;19.056;2022-12-15T13:55:21;39.60;;;22.20;;
65822;SDS011;52585;47.566;19.056;2022-12-15T13:58:12;41.00;;;22.20;;
65822;SDS011;52585;47.566;19.056;2022-12-15T14:00:52;38.50;;;21.90;;
65822;SDS011;52585;47.566;19.056;2022-12-15T14:03:19;38.50;;;21.30;;
65822;SDS011;52585;47.566;19.056;2022-12-15T14:05:51;42.80;;;22.00;;
65822;SDS011;52585;47.566;19.056;2022-12-15T14:08:22;43.50;;;20.30;;
65822;SDS011;52585;47.566;19.056;2022-12-15T14:10:51;41.90;;;22.10;;
65822;SDS011;52585;47.566;19.056;2022-12-15T14:13:22;42.40;;;23.80;;
65822;SDS011;52585;47.566;19.056;2022-12-15T14:16:05;46.20;;;24.40;;
65822;SDS011;52585;47.566;19.056;2022-12-15T14:18:41;41.90;;;21.70;;
65822;SDS011;52585;47.566;19.056;2022-12-15T14:21:24;36.90;;;21.00;;
65822;SDS011;52585;47.566;19.056;2022-12-15T14:23:54;37.00;;;21.20;;
65822;SDS011;52585;47.566;19.056;2022-12-15T14:26:27;35.70;;;19.90;;
65822;SDS011;52585;47.566;19.056;2022-12-15T14:29:03;35.50;;;20.50;;
65822;SDS011;52585;47.566;19.056;2022-12-15T14:31:30;40.00;;;20.50;;
65822;SDS011;52585;47.566;19.056;2022-12-15T14:34:08;43.90;;;22.60;;
65822;SDS011;52585;47.566;19.056;2022-12-15T14:36:40;48.00;;;24.50;;
65822;SDS011;52585;47.566;19.056;2022-12-15T14:39:35;43.60;;;22.90;;
65822;SDS011;52585;47.566;19.056;2022-12-15T14:42:15;38.60;;;21.20;;
65822;SDS011;52585;47.566;19.056;2022-12-15T14:44:45;33.80;;;20.10;;
65822;SDS011;52585;47.566;19.056;2022-12-15T14:47:33;34.40;;;19.10;;
65822;SDS011;52585;47.566;19.056;2022-12-15T14:50:01;39.30;;;21.10;;
65822;SDS011;52585;47.566;19.056;2022-12-15T14:52:38;40.60;;;20.50;;
65822;SDS011;52585;47.566;19.056;2022-12-15T14:58:33;44.40;;;24.20;;
65822;SDS011;52585;47.566;19.056;2022-12-15T15:01:01;40.60;;;22.70;;
65822;SDS011;52585;47.566;19.056;2022-12-15T15:03:36;34.50;;;21.40;;
65822;SDS011;52585;47.566;19.056;2022-12-15T15:06:16;32.40;;;19.10;;
65822;SDS011;52585;47.566;19.056;2022-12-15T15:08:46;35.00;;;18.80;;
65822;SDS011;52585;47.566;19.056;2022-12-15T15:13:42;37.70;;;20.80;;
65822;SDS011;52585;47.566;19.056;2022-12-15T15:16:16;38.40;;;22.00;;
65822;SDS011;52585;47.566;19.056;2022-12-15T15:18:47;39.90;;;22.90;;
65822;SDS011;52585;47.566;19.056;2022-12-15T15:21:20;36.60;;;22.00;;
65822;SDS011;52585;47.566;19.056;2022-12-15T15:26:33;36.00;;;20.00;;
65822;SDS011;52585;47.566;19.056;2022-12-15T15:28:59;35.40;;;20.10;;
65822;SDS011;52585;47.566;19.056;2022-12-15T15:31:26;30.70;;;18.40;;
65822;SDS011;52585;47.566;19.056;2022-12-15T15:33:56;36.20;;;19.70;;
65822;SDS011;52585;47.566;19.056;2022-12-15T15:36:29;42.40;;;22.10;;
65822;SDS011;52585;47.566;19.056;2022-12-15T15:38:58;43.50;;;22.10;;
65822;SDS011;52585;47.566;19.056;2022-12-15T15:41:29;42.20;;;23.10;;
65822;SDS011;52585;47.566;19.056;2022-12-15T15:43:57;40.30;;;22.00;;
65822;SDS011;52585;47.566;19.056;2022-12-15T15:46:27;37.00;;;20.40;;
65822;SDS011;52585;47.566;19.056;2022-12-15T15:48:59;35.60;;;20.90;;
65822;SDS011;52585;47.566;19.056;2022-12-15T15:51:30;35.90;;;20.00;;
65822;SDS011;52585;47.566;19.056;2022-12-15T15:54:00;37.70;;;19.90;;
65822;SDS011;52585;47.566;19.056;2022-12-15T15:56:28;40.30;;;22.20;;
65822;SDS011;52585;47.566;19.056;2022-12-15T15:58:56;44.50;;;23.30;;
65822;SDS011;52585;47.566;19.056;2022-12-15T16:01:23;42.30;;;24.40;;
65822;SDS011;52585;47.566;19.056;2022-12-15T16:03:49;37.20;;;21.80;;
65822;SDS011;52585;47.566;19.056;2022-12-15T16:06:16;35.10;;;20.20;;
65822;SDS011;52585;47.566;19.056;2022-12-15T16:08:46;35.40;;;19.60;;
65822;SDS011;52585;47.566;19.056;2022-12-15T16:11:15;38.50;;;20.80;;
65822;SDS011;52585;47.566;19.056;2022-12-15T16:13:41;39.70;;;21.70;;
65822;SDS011;52585;47.566;19.056;2022-12-15T16:16:17;44.10;;;23.50;;
65822;SDS011;52585;47.566;19.056;2022-12-15T16:18:44;48.60;;;25.20;;
65822;SDS011;52585;47.566;19.056;2022-12-15T16:21:12;45.00;;;24.00;;
65822;SDS011;52585;47.566;19.056;2022-12-15T16:23:40;40.40;;;22.40;;
65822;SDS011;52585;47.566;19.056;2022-12-15T16:26:16;41.60;;;21.90;;
65822;SDS011;52585;47.566;19.056;2022-12-15T16:28:53;35.90;;;20.70;;
65822;SDS011;52585;47.566;19.056;2022-12-15T16:31:29;38.10;;;20.50;;
65822;SDS011;52585;47.566;19.056;2022-12-15T16:34:03;37.40;;;21.30;;
65822;SDS011;52585;47.566;19.056;2022-12-15T16:36:33;38.10;;;22.90;;
65822;SDS011;52585;47.566;19.056;2022-12-15T16:38:59;47.30;;;24.60;;
65822;SDS011;52585;47.566;19.056;2022-12-15T16:41:25;41.80;;;23.60;;
65822;SDS011;52585;47.566;19.056;2022-12-15T16:43:52;41.90;;;22.30;;
65822;SDS011;52585;47.566;19.056;2022-12-15T16:46:18;34.00;;;20.90;;
65822;SDS011;52585;47.566;19.056;2022-12-15T16:48:44;38.00;;;21.00;;
65822;SDS011;52585;47.566;19.056;2022-12-15T16:51:25;37.10;;;20.90;;
65822;SDS011;52585;47.566;19.056;2022-12-15T16:53:58;37.60;;;21.40;;
65822;SDS011;52585;47.566;19.056;2022-12-15T16:56:24;42.60;;;24.40;;
65822;SDS011;52585;47.566;19.056;2022-12-15T16:58:50;42.70;;;22.90;;
65822;SDS011;52585;47.566;19.056;2022-12-15T17:01:16;44.20;;;24.70;;
65822;SDS011;52585;47.566;19.056;2022-12-15T17:03:42;42.80;;;23.20;;
65822;SDS011;52585;47.566;19.056;2022-12-15T17:06:11;39.70;;;21.30;;
65822;SDS011;52585;47.566;19.056;2022-12-15T17:08:50;34.10;;;20.50;;
65822;SDS011;52585;47.566;19.056;2022-12-15T17:11:21;34.70;;;20.60;;
65822;SDS011;52585;47.566;19.056;2022-12-15T17:13:50;32.10;;;18.50;;
65822;SDS011;52585;47.566;19.056;2022-12-15T17:16:19;40.50;;;21.60;;
65822;SDS011;52585;47.566;19.056;2022-12-15T17:18:46;45.30;;;22.90;;
65822;SDS011;52585;47.566;19.056;2022-12-15T17:21:26;43.10;;;23.90;;
65822;SDS011;52585;47.566;19.056;2022-12-15T17:23:55;37.20;;;22.40;;
65822;SDS011;52585;47.566;19.056;2022-12-15T17:26:27;32.40;;;20.20;;
65822;SDS011;52585;47.566;19.056;2022-12-15T17:28:57;29.80;;;18.80;;
65822;SDS011;52585;47.566;19.056;2022-12-15T17:31:25;33.20;;;19.00;;